Online Now
Guests 3
Members   0

24/7 FSX Server
IP: 71.135.74.145
@ KSFO until 1/31/20



Information and tools for flight simulation use only - NOT for real avaition

File Flight Plans Here

KSFO 272056Z 28009KT 8SM FEW013 OVC015 14/10 A3040 RMK AO2 SLP293 T01440100 58007KSFO 271956Z 2720/2824 28004KT P6SM BKN013 TEMPO 2723/2802 SCT020 FM280200 26005KT 6SM BR BKN012 BKN150 FM280800 25004KT 5SM BR BKN010 BKN020 OVC150 FM281700 24006KT 6SM BR BKN015 BKN025 BKN180 FM282100 20004KT 6SM BR OVC025 PROB30 2821/2824 -SHRA OVC015
Aviation Digital Data Service (ADDS)



Other FSX servers